createdAt,value
2022-12-24T00:00:58.695Z,5.85
2022-12-24T00:03:25.323Z,5.84
2022-12-24T00:05:51.916Z,5.86
2022-12-24T00:08:18.517Z,5.88
2022-12-24T00:10:45.220Z,5.88
2022-12-24T00:13:11.763Z,5.89
2022-12-24T00:15:38.239Z,5.95
2022-12-24T00:18:04.790Z,5.97
2022-12-24T00:20:31.342Z,5.92
2022-12-24T00:22:57.865Z,5.90
2022-12-24T00:25:24.372Z,5.88
2022-12-24T00:27:50.882Z,5.88
2022-12-24T00:30:17.386Z,5.88
2022-12-24T00:32:43.964Z,5.91
2022-12-24T00:35:10.435Z,5.97
2022-12-24T00:37:36.887Z,5.92
2022-12-24T00:40:03.633Z,5.95
2022-12-24T00:42:30.139Z,5.90
2022-12-24T00:44:56.666Z,5.87
2022-12-24T00:47:23.151Z,5.85
2022-12-24T00:49:49.713Z,5.81
2022-12-24T00:52:26.429Z,5.81
2022-12-24T00:54:52.943Z,5.89
2022-12-24T00:57:19.415Z,5.88
2022-12-24T00:59:45.922Z,5.89
2022-12-24T01:02:12.496Z,5.94
2022-12-24T01:04:57.844Z,5.94
2022-12-24T01:07:24.311Z,6.01
2022-12-24T01:09:50.847Z,6.00
2022-12-24T01:12:17.317Z,5.98
2022-12-24T01:14:43.766Z,5.99
2022-12-24T01:17:10.233Z,6.01
2022-12-24T01:19:36.686Z,5.97
2022-12-24T01:22:03.139Z,5.96
2022-12-24T01:24:29.583Z,5.96
2022-12-24T01:26:56.076Z,5.92
2022-12-24T01:29:22.547Z,5.94
2022-12-24T01:31:49.064Z,5.93
2022-12-24T01:34:15.534Z,5.92
2022-12-24T01:36:41.988Z,5.98
2022-12-24T01:39:08.458Z,5.94
2022-12-24T01:42:10.576Z,5.88
2022-12-24T01:44:40.166Z,5.88
2022-12-24T01:47:12.734Z,5.88
2022-12-24T01:49:42.808Z,5.86
2022-12-24T01:52:10.336Z,5.88
2022-12-24T01:54:38.403Z,5.93
2022-12-24T01:57:05.594Z,5.94
2022-12-24T01:59:32.239Z,5.97
2022-12-24T02:01:58.876Z,5.97
2022-12-24T02:04:37.382Z,6.05
2022-12-24T02:07:03.926Z,6.13
2022-12-24T02:09:30.356Z,6.16
2022-12-24T02:11:56.835Z,6.15
2022-12-24T02:14:23.348Z,6.14
2022-12-24T02:16:53.327Z,6.13
2022-12-24T02:19:19.738Z,6.15
2022-12-24T02:22:06.897Z,6.15
2022-12-24T02:24:33.300Z,6.16
2022-12-24T02:27:12.812Z,6.15
2022-12-24T02:29:42.320Z,6.20
2022-12-24T02:32:14.845Z,6.23
2022-12-24T02:34:44.302Z,6.24
2022-12-24T02:37:12.640Z,6.23
2022-12-24T02:39:42.164Z,6.23
2022-12-24T02:42:08.977Z,6.26
2022-12-24T02:44:39.905Z,6.32
2022-12-24T02:47:06.574Z,6.33
2022-12-24T02:49:33.091Z,6.39
2022-12-24T02:51:59.614Z,6.41
2022-12-24T02:54:26.095Z,6.41
2022-12-24T02:57:00.649Z,6.40
2022-12-24T02:59:45.509Z,6.44
2022-12-24T03:02:26.218Z,6.45
2022-12-24T03:05:11.619Z,6.47
2022-12-24T03:07:39.478Z,6.46
2022-12-24T03:10:08.980Z,6.45
2022-12-24T03:12:42.850Z,6.46
2022-12-24T03:15:09.595Z,6.41
2022-12-24T03:17:37.134Z,6.36
2022-12-24T03:20:04.121Z,6.37
2022-12-24T03:22:30.633Z,6.38
2022-12-24T03:24:57.219Z,6.37
2022-12-24T03:27:25.725Z,6.33
2022-12-24T03:29:52.216Z,6.29
2022-12-24T03:32:30.369Z,6.29
2022-12-24T03:34:57.095Z,6.28
2022-12-24T03:37:23.659Z,6.28
2022-12-24T03:39:50.151Z,6.31
2022-12-24T03:42:16.586Z,6.32
2022-12-24T03:44:43.074Z,6.32
2022-12-24T03:47:09.584Z,6.35
2022-12-24T03:49:36.068Z,6.35
2022-12-24T03:52:02.534Z,6.35
2022-12-24T03:54:29.064Z,6.34
2022-12-24T03:56:55.553Z,6.35
2022-12-24T03:59:22.031Z,6.33
2022-12-24T04:01:48.559Z,6.30
2022-12-24T04:04:15.141Z,6.28
2022-12-24T04:06:41.629Z,6.22
2022-12-24T04:09:08.882Z,6.18
2022-12-24T04:11:35.349Z,6.19
2022-12-24T04:14:01.797Z,6.15
2022-12-24T04:16:28.335Z,6.11
2022-12-24T04:18:54.813Z,6.08
2022-12-24T04:21:21.266Z,6.07
2022-12-24T04:23:48.131Z,6.08
2022-12-24T04:26:14.589Z,6.07
2022-12-24T04:28:41.419Z,6.05
2022-12-24T04:31:12.042Z,6.03
2022-12-24T04:33:38.546Z,5.99
2022-12-24T04:36:05.433Z,5.98
2022-12-24T04:38:32.099Z,5.98
2022-12-24T04:40:59.471Z,5.97
2022-12-24T04:43:26.334Z,5.94
2022-12-24T04:45:52.842Z,5.92
2022-12-24T04:48:19.292Z,5.92
2022-12-24T04:50:45.798Z,5.92
2022-12-24T04:53:14.978Z,5.97
2022-12-24T04:55:47.667Z,6.01
2022-12-24T04:58:14.178Z,6.06
2022-12-24T05:00:40.846Z,6.07
2022-12-24T05:03:07.297Z,6.12
2022-12-24T05:05:33.778Z,6.12
2022-12-24T05:08:00.266Z,6.15
2022-12-24T05:10:26.748Z,6.19
2022-12-24T05:12:53.424Z,6.21
2022-12-24T05:15:19.924Z,6.21
2022-12-24T05:17:46.387Z,6.20
2022-12-24T05:20:12.877Z,6.21
2022-12-24T05:22:58.063Z,6.23
2022-12-24T05:25:50.707Z,6.25
2022-12-24T05:28:17.177Z,6.28
2022-12-24T05:30:43.763Z,6.28
2022-12-24T05:33:10.240Z,6.32
2022-12-24T05:35:36.748Z,6.32
2022-12-24T05:38:03.261Z,6.33
2022-12-24T05:40:29.774Z,6.34
2022-12-24T05:42:56.235Z,6.32
2022-12-24T05:45:22.822Z,6.38
2022-12-24T05:47:49.355Z,6.39
2022-12-24T05:50:15.783Z,6.40
2022-12-24T05:52:42.260Z,6.40
2022-12-24T05:55:09.328Z,6.39
2022-12-24T05:57:36.006Z,6.37
2022-12-24T06:00:02.562Z,6.34
2022-12-24T06:02:29.087Z,6.27
2022-12-24T06:04:55.731Z,6.26
2022-12-24T06:07:22.236Z,6.21
2022-12-24T06:09:48.696Z,6.17
2022-12-24T06:12:15.149Z,6.11
2022-12-24T06:14:41.615Z,6.09
2022-12-24T06:17:08.056Z,6.10
2022-12-24T06:19:34.707Z,6.09
2022-12-24T06:22:01.188Z,6.09
2022-12-24T06:24:27.630Z,6.06
2022-12-24T06:26:54.198Z,6.07
2022-12-24T06:29:20.648Z,6.06
2022-12-24T06:31:47.129Z,6.07
2022-12-24T06:34:13.629Z,6.06
2022-12-24T06:36:40.224Z,6.05
2022-12-24T06:39:06.671Z,6.02
2022-12-24T06:41:33.231Z,5.96
2022-12-24T06:43:59.881Z,5.95
2022-12-24T06:46:26.490Z,5.94
2022-12-24T06:48:55.131Z,5.90
2022-12-24T06:51:21.841Z,5.94
2022-12-24T06:53:50.570Z,5.93
2022-12-24T06:56:17.127Z,5.96
2022-12-24T06:58:43.747Z,5.97
2022-12-24T07:01:11.103Z,5.95
2022-12-24T07:03:37.680Z,5.95
2022-12-24T07:06:04.407Z,5.97
2022-12-24T07:08:33.720Z,5.95
2022-12-24T07:11:00.280Z,5.94
2022-12-24T07:13:26.774Z,5.93
2022-12-24T07:15:59.941Z,5.92
2022-12-24T07:18:26.510Z,5.95
2022-12-24T07:20:53.005Z,5.89
2022-12-24T07:23:19.472Z,5.82
2022-12-24T07:25:46.018Z,5.82
2022-12-24T07:28:12.616Z,5.84
2022-12-24T07:30:39.089Z,5.86
2022-12-24T07:33:06.058Z,5.86
2022-12-24T07:35:32.552Z,5.89
2022-12-24T07:37:59.019Z,5.92
2022-12-24T07:40:25.581Z,5.97
2022-12-24T07:42:52.060Z,5.97
2022-12-24T07:45:18.578Z,5.98
2022-12-24T07:47:45.149Z,5.96
2022-12-24T07:50:11.824Z,5.92
2022-12-24T07:52:38.293Z,5.92
2022-12-24T07:55:04.874Z,5.93
2022-12-24T07:57:31.311Z,5.98
2022-12-24T07:59:57.819Z,6.00
2022-12-24T08:02:24.491Z,6.03
2022-12-24T08:04:51.062Z,6.03
2022-12-24T08:07:17.533Z,5.96
2022-12-24T08:09:46.105Z,5.93
2022-12-24T08:12:12.700Z,5.95
2022-12-24T08:14:39.180Z,6.03
2022-12-24T08:17:05.723Z,6.12
2022-12-24T08:19:32.154Z,6.19
2022-12-24T08:21:58.630Z,6.30
2022-12-24T08:24:25.142Z,6.37
2022-12-24T08:26:51.632Z,6.44
2022-12-24T08:29:18.198Z,6.53
2022-12-24T08:31:44.734Z,6.66
2022-12-24T08:34:11.195Z,7.07
2022-12-24T08:36:37.617Z,7.36
2022-12-24T08:39:04.298Z,7.54
2022-12-24T08:41:31.295Z,7.71
2022-12-24T08:43:57.800Z,7.78
2022-12-24T08:46:25.452Z,7.88
2022-12-24T08:48:51.941Z,7.93
2022-12-24T08:51:19.285Z,8.09
2022-12-24T08:53:45.870Z,8.25
2022-12-24T08:56:12.498Z,8.35
2022-12-24T08:58:38.959Z,8.38
2022-12-24T09:01:12.597Z,8.37
2022-12-24T09:03:39.186Z,8.31
2022-12-24T09:06:05.938Z,8.24
2022-12-24T09:08:32.697Z,8.25
2022-12-24T09:11:05.961Z,8.21
2022-12-24T09:13:33.222Z,8.38
2022-12-24T09:15:59.683Z,8.65
2022-12-24T09:18:26.286Z,9.28
2022-12-24T09:20:57.233Z,10.23
2022-12-24T09:23:24.113Z,11.25
2022-12-24T09:25:50.578Z,10.30
2022-12-24T09:28:17.098Z,12.47
2022-12-24T09:30:43.578Z,12.59
2022-12-24T09:33:10.088Z,12.65
2022-12-24T09:35:39.702Z,12.67
2022-12-24T09:38:06.188Z,12.62
2022-12-24T09:40:36.663Z,12.46
2022-12-24T09:43:04.159Z,12.22
2022-12-24T09:45:31.649Z,11.87
2022-12-24T09:47:59.743Z,11.46
2022-12-24T09:50:31.536Z,11.10
2022-12-24T09:52:58.512Z,10.68
2022-12-24T09:55:32.720Z,10.29
2022-12-24T09:57:59.571Z,9.94
2022-12-24T10:00:27.198Z,9.69
2022-12-24T10:02:53.775Z,9.48
2022-12-24T10:05:24.710Z,9.29
2022-12-24T10:07:54.143Z,9.11
2022-12-24T10:10:23.856Z,8.93
2022-12-24T10:12:50.341Z,8.76
2022-12-24T10:15:16.774Z,8.64
2022-12-24T10:17:49.491Z,8.56
2022-12-24T10:20:25.038Z,8.46
2022-12-24T10:23:10.503Z,8.39
2022-12-24T10:25:52.566Z,8.36
2022-12-24T10:28:19.895Z,8.31
2022-12-24T10:30:48.476Z,8.28
2022-12-24T10:33:17.329Z,8.26
2022-12-24T10:35:45.232Z,8.33
2022-12-24T10:38:11.765Z,8.43
2022-12-24T10:40:39.856Z,8.55
2022-12-24T10:43:17.053Z,8.73
2022-12-24T10:45:44.733Z,8.88
2022-12-24T10:48:12.886Z,8.97
2022-12-24T10:50:56.809Z,9.00
2022-12-24T10:53:41.942Z,9.04
2022-12-24T10:56:09.634Z,9.18
2022-12-24T10:58:36.099Z,9.20
2022-12-24T11:01:03.040Z,9.17
2022-12-24T11:03:33.645Z,9.17
2022-12-24T11:06:22.961Z,9.14
2022-12-24T11:08:49.453Z,9.12
2022-12-24T11:11:16.868Z,9.12
2022-12-24T11:13:47.181Z,9.13
2022-12-24T11:16:22.854Z,9.20
2022-12-24T11:18:56.166Z,9.25
2022-12-24T11:21:25.784Z,9.36
2022-12-24T11:23:58.966Z,9.41
2022-12-24T11:26:26.531Z,9.45
2022-12-24T11:29:22.557Z,9.47
2022-12-24T11:31:49.753Z,9.68
2022-12-24T11:34:22.622Z,9.81
2022-12-24T11:36:49.783Z,9.77
2022-12-24T11:39:23.266Z,9.71
2022-12-24T11:41:51.181Z,9.73
2022-12-24T11:44:23.710Z,9.61
2022-12-24T11:46:53.106Z,9.54
2022-12-24T11:49:23.877Z,9.44
2022-12-24T11:52:09.212Z,9.39
2022-12-24T11:54:47.039Z,9.30
2022-12-24T11:57:13.787Z,9.18
2022-12-24T11:59:41.306Z,9.10
2022-12-24T12:02:17.545Z,9.05
2022-12-24T12:04:44.480Z,9.02
2022-12-24T12:07:15.802Z,8.97
2022-12-24T12:09:43.525Z,8.98
2022-12-24T12:12:12.510Z,8.98
2022-12-24T12:14:58.765Z,9.08
2022-12-24T12:17:43.977Z,9.23
2022-12-24T12:20:13.549Z,9.25
2022-12-24T12:23:09.344Z,9.35
2022-12-24T12:25:46.712Z,9.39
2022-12-24T12:28:23.355Z,9.32
2022-12-24T12:30:54.378Z,9.29
2022-12-24T12:33:30.835Z,9.23
2022-12-24T12:35:57.308Z,9.18
2022-12-24T12:38:24.908Z,9.14
2022-12-24T12:40:57.522Z,9.07
2022-12-24T12:43:50.478Z,8.99
2022-12-24T12:46:21.455Z,8.86
2022-12-24T12:49:02.532Z,8.79
2022-12-24T12:51:36.506Z,8.72
2022-12-24T12:54:12.103Z,8.69
2022-12-24T12:56:39.866Z,8.70
2022-12-24T12:59:15.494Z,8.70
2022-12-24T13:01:51.163Z,8.68
2022-12-24T13:04:20.761Z,8.67
2022-12-24T13:06:53.383Z,8.69
2022-12-24T13:09:23.408Z,8.67
2022-12-24T13:11:50.293Z,8.72
2022-12-24T13:14:32.295Z,8.68
2022-12-24T13:17:07.975Z,8.67
2022-12-24T13:19:47.976Z,8.64
2022-12-24T13:22:15.180Z,8.59
2022-12-24T13:24:46.439Z,8.53
2022-12-24T13:27:17.881Z,8.46
2022-12-24T13:29:44.388Z,8.46
2022-12-24T13:32:20.123Z,8.40
2022-12-24T13:34:50.431Z,8.39
2022-12-24T13:37:20.936Z,8.33
2022-12-24T13:40:02.955Z,8.23
2022-12-24T13:42:48.303Z,8.18
2022-12-24T13:45:33.021Z,8.13
2022-12-24T13:48:05.709Z,8.13
2022-12-24T13:50:35.174Z,8.11
2022-12-24T13:53:01.598Z,8.10
2022-12-24T13:55:28.034Z,8.10
2022-12-24T13:57:57.298Z,8.07
2022-12-24T14:00:40.180Z,8.03
2022-12-24T14:03:09.703Z,8.01
2022-12-24T14:05:40.454Z,7.99
2022-12-24T14:08:08.431Z,7.96
2022-12-24T14:10:42.382Z,7.90
2022-12-24T14:13:29.073Z,7.85
2022-12-24T14:15:55.619Z,7.79
2022-12-24T14:18:22.904Z,7.70
2022-12-24T14:20:50.038Z,7.60
2022-12-24T14:23:26.013Z,7.51
2022-12-24T14:25:52.440Z,7.46
2022-12-24T14:28:19.608Z,7.43
2022-12-24T14:30:46.084Z,7.38
2022-12-24T14:33:28.453Z,7.34
2022-12-24T14:35:54.933Z,7.30
2022-12-24T14:38:23.007Z,7.21
2022-12-24T14:41:09.794Z,7.19
2022-12-24T14:43:42.322Z,7.10
2022-12-24T14:46:32.173Z,7.04
2022-12-24T14:49:08.012Z,6.97
2022-12-24T14:51:34.451Z,6.90
2022-12-24T14:54:03.876Z,6.86
2022-12-24T14:56:30.395Z,6.81
2022-12-24T14:58:59.102Z,6.80
2022-12-24T15:01:26.410Z,6.75
2022-12-24T15:04:11.285Z,6.71
2022-12-24T15:06:38.485Z,6.66
2022-12-24T15:09:05.004Z,6.63
2022-12-24T15:11:31.505Z,6.62
2022-12-24T15:13:58.378Z,6.60
2022-12-24T15:16:28.548Z,6.56
2022-12-24T15:19:01.756Z,6.54
2022-12-24T15:21:35.363Z,6.54
2022-12-24T15:24:01.800Z,6.56
2022-12-24T15:26:29.215Z,6.59
2022-12-24T15:29:02.376Z,6.58
2022-12-24T15:31:30.178Z,6.49
2022-12-24T15:33:56.883Z,6.42
2022-12-24T15:36:26.471Z,6.33
2022-12-24T15:38:53.990Z,6.26
2022-12-24T15:41:21.143Z,6.21
2022-12-24T15:43:47.745Z,6.17
2022-12-24T15:46:21.192Z,6.12
2022-12-24T15:48:48.055Z,6.10
2022-12-24T15:51:16.813Z,6.10
2022-12-24T15:53:43.872Z,6.07
2022-12-24T15:56:14.076Z,6.05
2022-12-24T15:58:41.430Z,6.02
2022-12-24T16:01:14.313Z,5.99
2022-12-24T16:03:41.611Z,5.92
2022-12-24T16:06:08.757Z,5.84
2022-12-24T16:08:35.661Z,5.81
2022-12-24T16:11:08.291Z,5.74
2022-12-24T16:13:35.573Z,5.69
2022-12-24T16:16:03.341Z,5.66
2022-12-24T16:18:37.133Z,5.62
2022-12-24T16:21:03.675Z,5.59
2022-12-24T16:23:40.198Z,5.56
2022-12-24T16:26:06.658Z,5.52
2022-12-24T16:28:33.100Z,5.52
2022-12-24T16:30:59.572Z,5.52
2022-12-24T16:33:26.099Z,5.50
2022-12-24T16:35:52.617Z,5.52
2022-12-24T16:38:19.109Z,5.51
2022-12-24T16:40:45.566Z,5.51
2022-12-24T16:43:30.792Z,5.50
2022-12-24T16:46:04.162Z,5.46
2022-12-24T16:48:30.763Z,5.43
2022-12-24T16:50:57.425Z,5.39
2022-12-24T16:53:23.927Z,5.32
2022-12-24T16:55:51.593Z,5.31
2022-12-24T16:58:18.177Z,5.27
2022-12-24T17:00:44.988Z,5.27
2022-12-24T17:03:11.833Z,5.28
2022-12-24T17:05:38.900Z,5.28
2022-12-24T17:08:05.512Z,5.30
2022-12-24T17:10:31.971Z,5.30
2022-12-24T17:12:58.386Z,5.30
2022-12-24T17:15:24.814Z,5.32
2022-12-24T17:17:51.345Z,5.33
2022-12-24T17:20:23.810Z,5.35
2022-12-24T17:22:50.891Z,5.40
2022-12-24T17:25:17.335Z,5.34
2022-12-24T17:27:43.777Z,5.35
2022-12-24T17:30:10.364Z,5.35
2022-12-24T17:32:37.581Z,5.33
2022-12-24T17:35:04.274Z,5.33
2022-12-24T17:37:30.828Z,5.32
2022-12-24T17:39:57.413Z,5.33
2022-12-24T17:42:23.901Z,4.81
2022-12-24T17:44:50.344Z,5.33
2022-12-24T17:47:17.093Z,5.33
2022-12-24T17:49:43.552Z,5.32
2022-12-24T17:52:10.112Z,5.32
2022-12-24T17:54:36.598Z,5.34
2022-12-24T17:57:03.060Z,5.31
2022-12-24T17:59:29.494Z,5.30
2022-12-24T18:01:56.047Z,5.30
2022-12-24T18:04:22.686Z,5.27
2022-12-24T18:06:49.934Z,5.27
2022-12-24T18:09:16.677Z,5.27
2022-12-24T18:11:43.122Z,5.25
2022-12-24T18:14:10.466Z,5.24
2022-12-24T18:16:37.682Z,5.27
2022-12-24T18:19:04.479Z,5.24
2022-12-24T18:21:31.426Z,5.19
2022-12-24T18:23:57.998Z,5.15
2022-12-24T18:26:28.243Z,5.11
2022-12-24T18:28:55.713Z,5.05
2022-12-24T18:31:22.304Z,5.01
2022-12-24T18:33:49.096Z,5.01
2022-12-24T18:36:15.754Z,4.99
2022-12-24T18:38:42.195Z,4.99
2022-12-24T18:41:09.675Z,4.98
2022-12-24T18:43:36.127Z,4.94
2022-12-24T18:46:15.948Z,4.91
2022-12-24T18:48:42.524Z,4.90
2022-12-24T18:51:09.313Z,4.91
2022-12-24T18:53:35.803Z,4.89
2022-12-24T18:56:10.775Z,4.87
2022-12-24T18:58:42.220Z,4.86
2022-12-24T19:01:15.796Z,4.82
2022-12-24T19:03:42.529Z,4.77
2022-12-24T19:06:09.167Z,4.70
2022-12-24T19:11:22.410Z,4.63
2022-12-24T19:13:48.942Z,4.64
2022-12-24T19:16:15.702Z,4.64
2022-12-24T19:18:42.208Z,4.63
2022-12-24T19:21:09.689Z,4.63
2022-12-24T19:23:36.134Z,4.63
2022-12-24T19:26:02.625Z,4.61
2022-12-24T19:28:32.213Z,4.63
2022-12-24T19:31:05.623Z,4.63
2022-12-24T19:33:41.980Z,4.62
2022-12-24T19:36:09.799Z,4.61
2022-12-24T19:38:36.592Z,4.60
2022-12-24T19:41:22.180Z,4.60
2022-12-24T19:43:49.561Z,4.59
2022-12-24T19:46:17.457Z,4.57
2022-12-24T19:48:44.359Z,4.57
2022-12-24T19:51:11.300Z,4.56
2022-12-24T19:53:37.805Z,4.55
2022-12-24T19:56:04.412Z,4.54
2022-12-24T19:58:32.802Z,4.56
2022-12-24T20:01:09.705Z,4.57
2022-12-24T20:03:41.144Z,4.56
2022-12-24T20:06:08.632Z,4.55
2022-12-24T20:08:35.844Z,4.55
2022-12-24T20:11:06.685Z,4.56
2022-12-24T20:13:36.622Z,4.53
2022-12-24T20:16:07.001Z,4.51
2022-12-24T20:18:33.691Z,4.54
2022-12-24T20:21:03.786Z,4.46
2022-12-24T20:23:30.380Z,4.42
2022-12-24T20:25:58.344Z,4.41
2022-12-24T20:28:25.568Z,4.42
2022-12-24T20:30:52.128Z,4.43
2022-12-24T20:33:18.659Z,4.41
2022-12-24T20:35:45.250Z,4.40
2022-12-24T20:38:11.732Z,4.40
2022-12-24T20:40:41.638Z,4.39
2022-12-24T20:43:08.123Z,4.38
2022-12-24T20:45:36.817Z,4.39
2022-12-24T20:48:03.574Z,4.41
2022-12-24T20:50:30.084Z,4.43
2022-12-24T20:52:56.606Z,4.41
2022-12-24T20:55:23.083Z,4.42
2022-12-24T20:57:49.831Z,4.42
2022-12-24T21:00:16.827Z,4.43
2022-12-24T21:02:43.425Z,4.43
2022-12-24T21:05:10.059Z,4.44
2022-12-24T21:07:39.026Z,4.43
2022-12-24T21:10:06.689Z,4.41
2022-12-24T21:12:51.842Z,4.40
2022-12-24T21:15:22.135Z,4.32
2022-12-24T21:17:48.647Z,4.28
2022-12-24T21:20:15.634Z,4.25
2022-12-24T21:22:42.404Z,4.23
2022-12-24T21:25:09.064Z,4.20
2022-12-24T21:27:35.635Z,4.18
2022-12-24T21:30:02.422Z,4.19
2022-12-24T21:32:28.892Z,4.20
2022-12-24T21:34:55.409Z,4.22
2022-12-24T21:37:21.895Z,4.24
2022-12-24T21:39:48.434Z,4.25
2022-12-24T21:42:14.988Z,4.26
2022-12-24T21:44:41.468Z,4.24
2022-12-24T21:47:08.082Z,4.21
2022-12-24T21:49:53.398Z,4.17
2022-12-24T21:52:19.831Z,4.10
2022-12-24T21:54:46.284Z,3.96
2022-12-24T21:57:31.581Z,3.85
2022-12-24T22:00:18.157Z,3.79
2022-12-24T22:02:44.905Z,3.73
2022-12-24T22:05:11.593Z,3.63
2022-12-24T22:07:57.692Z,3.57
2022-12-24T22:10:42.861Z,3.53
2022-12-24T22:13:09.844Z,3.52
2022-12-24T22:15:36.777Z,3.53
2022-12-24T22:18:03.414Z,3.52
2022-12-24T22:20:29.929Z,3.54
2022-12-24T22:22:56.441Z,3.56
2022-12-24T22:25:22.882Z,3.57
2022-12-24T22:27:49.430Z,3.54
2022-12-24T22:30:15.995Z,3.53
2022-12-24T22:32:42.779Z,3.51
2022-12-24T22:35:09.444Z,3.47
2022-12-24T22:37:35.981Z,3.39
2022-12-24T22:40:02.620Z,3.31
2022-12-24T22:42:32.944Z,3.18
2022-12-24T22:45:00.932Z,3.08
2022-12-24T22:47:27.495Z,3.00
2022-12-24T22:49:53.992Z,2.94
2022-12-24T22:52:20.423Z,2.91
2022-12-24T22:54:46.871Z,2.84
2022-12-24T22:57:13.323Z,2.78
2022-12-24T22:59:39.989Z,2.70
2022-12-24T23:02:06.873Z,2.67
2022-12-24T23:04:37.014Z,2.65
2022-12-24T23:07:03.775Z,2.62
2022-12-24T23:09:30.271Z,2.59
2022-12-24T23:11:56.730Z,2.55
2022-12-24T23:14:41.870Z,2.53
2022-12-24T23:17:08.532Z,2.51
2022-12-24T23:19:34.956Z,2.51
2022-12-24T23:22:01.573Z,2.50
2022-12-24T23:24:28.084Z,2.46
2022-12-24T23:26:55.038Z,1.89
2022-12-24T23:29:21.475Z,2.30
2022-12-24T23:31:48.029Z,2.25
2022-12-24T23:34:14.518Z,2.21
2022-12-24T23:36:41.411Z,2.17
2022-12-24T23:39:07.895Z,2.16
2022-12-24T23:41:34.319Z,2.19
2022-12-24T23:44:00.777Z,2.22
2022-12-24T23:46:27.439Z,2.26
2022-12-24T23:48:54.760Z,2.32
2022-12-24T23:51:23.616Z,2.36
2022-12-24T23:53:50.707Z,2.37
2022-12-24T23:56:17.152Z,2.40
2022-12-24T23:58:44.070Z,2.40
